Time,TemperatureF,DewpointF,PressureIn,WindDirection,WindDirectionDegrees,WindSpeedMPH,WindSpeedGustMPH,Humidity,HourlyPrecipIn,Conditions,Clouds,dailyrainin,SolarRadiationWatts/m^2,SoftwareType,DateUTC
2013-01-07 00:02:00,34.0,26.0,30.18,NNW,346,4.0,5.0,71,-99.99,,,-99.99,0.000000,,2013-01-07 07:02:00,
2013-01-07 00:12:00,34.0,26.0,30.17,North,9,4.0,5.0,69,-99.99,,,-99.99,0.000000,,2013-01-07 07:12:00,
2013-01-07 00:22:00,34.0,26.0,30.17,North,9,4.0,5.0,69,-99.99,,,-99.99,0.000000,,2013-01-07 07:22:00,
2013-01-07 00:33:00,34.0,26.0,30.16,North,6,4.0,6.0,70,-99.99,,,-99.99,0.000000,,2013-01-07 07:33:00,
2013-01-07 00:42:00,34.0,26.0,30.16,North,355,3.0,4.0,70,-99.99,,,-99.99,0.000000,,2013-01-07 07:42:00,
2013-01-07 00:53:00,34.0,26.0,30.16,North,355,3.0,4.0,70,-99.99,,,-99.99,0.000000,,2013-01-07 07:53:00,
2013-01-07 01:03:00,34.0,26.0,30.15,North,6,2.0,4.0,69,-99.99,,,-99.99,0.000000,,2013-01-07 08:03:00,
2013-01-07 01:12:00,34.0,26.0,30.15,North,10,3.0,5.0,71,-99.99,,,-99.99,0.000000,,2013-01-07 08:12:00,
2013-01-07 01:22:00,34.0,26.0,30.15,North,10,3.0,5.0,71,-99.99,,,-99.99,0.000000,,2013-01-07 08:22:00,
2013-01-07 01:32:00,34.0,25.0,30.14,North,11,4.0,5.0,71,-99.99,,,-99.99,0.000000,,2013-01-07 08:32:00,
2013-01-07 01:42:00,34.0,25.0,30.13,NNE,17,3.0,5.0,69,-99.99,,,-99.99,0.000000,,2013-01-07 08:42:00,
2013-01-07 01:53:00,34.0,25.0,30.13,NNE,28,2.0,4.0,69,-99.99,,,-99.99,0.000000,,2013-01-07 08:53:00,
2013-01-07 02:02:00,34.0,25.0,30.13,NNE,28,2.0,4.0,69,-99.99,,,-99.99,0.000000,,2013-01-07 09:02:00,
2013-01-07 02:12:00,34.0,25.0,30.12,North,6,2.0,4.0,70,-99.99,,,-99.99,0.000000,,2013-01-07 09:12:00,
2013-01-07 02:22:00,34.0,25.0,30.12,North,6,2.0,4.0,70,-99.99,,,-99.99,0.000000,,2013-01-07 09:22:00,
2013-01-07 02:32:00,34.0,25.0,30.11,NE,42,3.0,8.0,70,-99.99,,,-99.99,0.000000,,2013-01-07 09:32:00,
2013-01-07 02:42:00,35.0,25.0,30.11,ENE,67,2.0,5.0,66,-99.99,,,-99.99,0.000000,,2013-01-07 09:42:00,
2013-01-07 02:52:00,35.0,25.0,30.11,ENE,67,2.0,5.0,66,-99.99,,,-99.99,0.000000,,2013-01-07 09:52:00,
2013-01-07 03:02:00,34.0,25.0,30.11,NNE,16,3.0,5.0,69,-99.99,,,-99.99,0.000000,,2013-01-07 10:02:00,
2013-01-07 03:12:00,34.0,25.0,30.10,East,83,2.0,5.0,68,-99.99,,,-99.99,0.000000,,2013-01-07 10:12:00,
2013-01-07 03:22:00,34.0,25.0,30.10,East,83,2.0,5.0,68,-99.99,,,-99.99,0.000000,,2013-01-07 10:22:00,
2013-01-07 03:32:00,34.0,25.0,30.09,NE,44,2.0,4.0,69,-99.99,,,-99.99,0.000000,,2013-01-07 10:32:00,
2013-01-07 03:42:00,34.0,25.0,30.09,NNE,32,2.0,5.0,69,-99.99,,,-99.99,0.000000,,2013-01-07 10:42:00,
2013-01-07 03:52:00,34.0,25.0,30.09,NNE,32,2.0,5.0,69,-99.99,,,-99.99,0.000000,,2013-01-07 10:52:00,
2013-01-07 04:02:00,34.0,26.0,30.08,North,10,3.0,5.0,69,-99.99,,,-99.99,0.000000,,2013-01-07 11:02:00,
2013-01-07 04:12:00,34.0,26.0,30.09,NNW,332,4.0,7.0,72,-99.99,,,-99.99,0.000000,,2013-01-07 11:12:00,
2013-01-07 04:22:00,34.0,26.0,30.09,NNW,332,4.0,7.0,72,-99.99,,,-99.99,0.000000,,2013-01-07 11:22:00,
2013-01-07 04:32:00,33.0,26.0,30.08,North,350,5.0,7.0,73,-99.99,,,-99.99,0.000000,,2013-01-07 11:32:00,
2013-01-07 04:43:00,33.0,25.0,30.07,North,6,5.0,7.0,74,-99.99,,,-99.99,0.000000,,2013-01-07 11:43:00,
2013-01-07 04:53:00,33.0,26.0,30.06,North,1,4.0,7.0,74,-99.99,,,-99.99,0.000000,,2013-01-07 11:53:00,
2013-01-07 05:03:00,33.0,26.0,30.06,North,1,4.0,7.0,74,-99.99,,,-99.99,0.000000,,2013-01-07 12:03:00,
2013-01-07 05:12:00,33.0,25.0,30.06,NNW,332,5.0,7.0,74,-99.99,,,-99.99,0.000000,,2013-01-07 12:12:00,
2013-01-07 05:22:00,33.0,25.0,30.06,NNW,332,5.0,7.0,74,-99.99,,,-99.99,0.000000,,2013-01-07 12:22:00,
2013-01-07 05:33:00,31.0,25.0,30.06,NW,319,7.0,10.0,78,-99.99,,,-99.99,0.000000,,2013-01-07 12:33:00,
2013-01-07 05:43:00,32.0,26.0,30.06,NNW,330,6.0,9.0,76,-99.99,,,-99.99,0.000000,,2013-01-07 12:43:00,
2013-01-07 05:53:00,32.0,26.0,30.06,NNW,330,6.0,9.0,76,-99.99,,,-99.99,0.000000,,2013-01-07 12:53:00,
2013-01-07 06:02:00,33.0,26.0,30.05,NNW,341,6.0,8.0,75,-99.99,,,-99.99,0.000000,,2013-01-07 13:02:00,
2013-01-07 06:12:00,33.0,26.0,30.05,NNW,340,4.0,7.0,73,-99.99,,,-99.99,0.000000,,2013-01-07 13:12:00,
2013-01-07 06:23:00,33.0,26.0,30.05,NNW,340,4.0,7.0,73,-99.99,,,-99.99,0.000000,,2013-01-07 13:23:00,
2013-01-07 06:33:00,33.0,26.0,30.06,NW,321,5.0,7.0,73,-99.99,,,-99.99,0.000000,,2013-01-07 13:33:00,
2013-01-07 06:42:00,33.0,26.0,30.06,NNW,341,4.0,6.0,74,-99.99,,,-99.99,0.000000,,2013-01-07 13:42:00,
2013-01-07 06:53:00,34.0,26.0,30.06,NNW,340,4.0,8.0,71,-99.99,,,-99.99,0.000000,,2013-01-07 13:53:00,
2013-01-07 07:03:00,34.0,26.0,30.06,NNW,340,4.0,8.0,71,-99.99,,,-99.99,0.000000,,2013-01-07 14:03:00,
2013-01-07 07:12:00,34.0,26.0,30.06,NNW,334,5.0,7.0,70,-99.99,,,-99.99,0.000000,,2013-01-07 14:12:00,
2013-01-07 07:22:00,34.0,26.0,30.06,NNW,334,5.0,7.0,70,-99.99,,,-99.99,0.000000,,2013-01-07 14:22:00,
2013-01-07 07:33:00,34.0,26.0,30.06,NW,323,5.0,6.0,71,-99.99,,,-99.99,0.000000,,2013-01-07 14:33:00,
2013-01-07 07:42:00,33.0,26.0,30.07,NW,312,7.0,9.0,75,-99.99,,,-99.99,2.090000,,2013-01-07 14:42:00,
2013-01-07 07:53:00,33.0,26.0,30.07,NW,312,7.0,9.0,75,-99.99,,,-99.99,2.090000,,2013-01-07 14:53:00,
2013-01-07 08:03:00,33.0,26.0,30.07,NW,321,5.0,7.0,75,-99.99,,,-99.99,27.200001,,2013-01-07 15:03:00,
2013-01-07 08:12:00,36.0,27.0,30.08,North,357,2.0,5.0,69,-99.99,,,-99.99,109.480003,,2013-01-07 15:12:00,
2013-01-07 08:22:00,36.0,27.0,30.08,North,357,2.0,5.0,69,-99.99,,,-99.99,109.480003,,2013-01-07 15:22:00,
2013-01-07 08:30:00,38.0,26.0,30.09,East,90,3.0,5.0,60,-99.99,,,-99.99,230.119995,,2013-01-07 15:30:00,
2013-01-07 08:33:00,37.0,27.0,30.08,North,358,3.0,4.0,65,-99.99,,,-99.99,182.699997,,2013-01-07 15:33:00,
2013-01-07 08:43:00,39.0,27.0,30.08,North,3,1.0,3.0,61,-99.99,,,-99.99,202.919998,,2013-01-07 15:43:00,
2013-01-07 08:53:00,39.0,27.0,30.08,North,3,1.0,3.0,61,-99.99,,,-99.99,202.919998,,2013-01-07 15:53:00,
2013-01-07 09:02:00,38.0,26.0,30.09,East,90,3.0,5.0,60,-99.99,,,-99.99,230.119995,,2013-01-07 16:02:00,
2013-01-07 09:12:00,38.0,26.0,30.09,East,90,3.0,5.0,60,-99.99,,,-99.99,230.119995,,2013-01-07 16:12:00,
2013-01-07 09:22:00,38.0,26.0,30.09,East,90,3.0,5.0,60,-99.99,,,-99.99,230.119995,,2013-01-07 16:22:00,
2013-01-07 09:43:00,41.0,25.0,30.09,East,86,3.0,7.0,53,-99.99,,,-99.99,444.200012,,2013-01-07 16:43:00,
2013-01-07 09:53:00,41.0,25.0,30.09,East,86,3.0,7.0,53,-99.99,,,-99.99,444.200012,,2013-01-07 16:53:00,
2013-01-07 10:03:00,40.0,25.0,30.09,ESE,104,3.0,5.0,54,-99.99,,,-99.99,525.789978,,2013-01-07 17:03:00,
2013-01-07 10:12:00,40.0,25.0,30.09,East,97,3.0,6.0,53,-99.99,,,-99.99,578.090027,,2013-01-07 17:12:00,
2013-01-07 10:23:00,40.0,25.0,30.09,East,97,3.0,6.0,53,-99.99,,,-99.99,578.090027,,2013-01-07 17:23:00,
2013-01-07 10:33:00,41.0,25.0,30.09,East,91,3.0,6.0,52,-99.99,,,-99.99,625.510010,,2013-01-07 17:33:00,
2013-01-07 10:42:00,41.0,25.0,30.09,East,97,5.0,9.0,51,-99.99,,,-99.99,668.049988,,2013-01-07 17:42:00,
2013-01-07 10:53:00,41.0,25.0,30.09,East,97,5.0,9.0,51,-99.99,,,-99.99,668.049988,,2013-01-07 17:53:00,
2013-01-07 11:03:00,41.0,24.0,30.09,ESE,113,4.0,9.0,51,-99.99,,,-99.99,705.700012,,2013-01-07 18:03:00,
2013-01-07 11:12:00,41.0,24.0,30.07,ESE,107,4.0,7.0,49,-99.99,,,-99.99,739.169983,,2013-01-07 18:12:00,
2013-01-07 11:23:00,41.0,24.0,30.07,ESE,107,4.0,7.0,49,-99.99,,,-99.99,739.169983,,2013-01-07 18:23:00,
2013-01-07 11:32:00,41.0,24.0,30.07,ESE,107,4.0,7.0,49,-99.99,,,-99.99,739.169983,,2013-01-07 18:32:00,
2013-01-07 11:42:00,42.0,24.0,30.06,East,97,3.0,6.0,48,-99.99,,,-99.99,800.539978,,2013-01-07 18:42:00,
2013-01-07 11:53:00,42.0,24.0,30.06,East,97,3.0,6.0,48,-99.99,,,-99.99,800.539978,,2013-01-07 18:53:00,
2013-01-07 12:03:00,42.0,24.0,30.05,ESE,111,4.0,8.0,48,-99.99,,,-99.99,827.039978,,2013-01-07 19:03:00,
2013-01-07 12:12:00,43.0,25.0,30.04,SE,124,5.0,9.0,48,-99.99,,,-99.99,849.349976,,2013-01-07 19:12:00,
2013-01-07 12:22:00,43.0,25.0,30.04,SE,124,5.0,9.0,48,-99.99,,,-99.99,849.349976,,2013-01-07 19:22:00,
2013-01-07 12:33:00,43.0,25.0,30.02,ESE,114,5.0,9.0,48,-99.99,,,-99.99,785.200012,,2013-01-07 19:33:00,
2013-01-07 12:42:00,43.0,26.0,30.01,ESE,119,5.0,9.0,49,-99.99,,,-99.99,639.450012,,2013-01-07 19:42:00,
2013-01-07 12:53:00,43.0,26.0,30.01,ESE,119,5.0,9.0,49,-99.99,,,-99.99,639.450012,,2013-01-07 19:53:00,
2013-01-07 13:03:00,43.0,26.0,30.00,ESE,108,5.0,9.0,49,-99.99,,,-99.99,579.479980,,2013-01-07 20:03:00,
2013-01-07 13:12:00,44.0,26.0,29.99,ESE,116,5.0,10.0,48,-99.99,,,-99.99,753.820007,,2013-01-07 20:12:00,
2013-01-07 13:23:00,44.0,26.0,29.99,ESE,116,5.0,10.0,48,-99.99,,,-99.99,753.820007,,2013-01-07 20:23:00,
2013-01-07 13:33:00,44.0,26.0,29.98,ESE,105,5.0,9.0,48,-99.99,,,-99.99,665.260010,,2013-01-07 20:33:00,
2013-01-07 13:42:00,44.0,26.0,29.98,ESE,119,4.0,8.0,49,-99.99,,,-99.99,446.290009,,2013-01-07 20:42:00,
2013-01-07 13:53:00,44.0,26.0,29.98,ESE,119,4.0,8.0,49,-99.99,,,-99.99,446.290009,,2013-01-07 20:53:00,
2013-01-07 14:03:00,44.0,27.0,29.97,SE,128,5.0,8.0,49,-99.99,,,-99.99,812.390015,,2013-01-07 21:03:00,
2013-01-07 14:12:00,45.0,26.0,29.97,SE,124,4.0,9.0,47,-99.99,,,-99.99,812.390015,,2013-01-07 21:12:00,
2013-01-07 14:23:00,45.0,26.0,29.97,SE,124,4.0,9.0,47,-99.99,,,-99.99,812.390015,,2013-01-07 21:23:00,
2013-01-07 14:33:00,45.0,27.0,29.96,SE,129,3.0,9.0,47,-99.99,,,-99.99,753.820007,,2013-01-07 21:33:00,
2013-01-07 14:43:00,46.0,27.0,29.95,SE,134,4.0,10.0,46,-99.99,,,-99.99,722.440002,,2013-01-07 21:43:00,
2013-01-07 14:53:00,46.0,27.0,29.95,SE,134,4.0,10.0,46,-99.99,,,-99.99,722.440002,,2013-01-07 21:53:00,
2013-01-07 15:02:00,46.0,27.0,29.95,ESE,116,4.0,9.0,47,-99.99,,,-99.99,697.330017,,2013-01-07 22:02:00,
2013-01-07 15:12:00,47.0,28.0,29.95,ESE,111,3.0,7.0,47,-99.99,,,-99.99,656.190002,,2013-01-07 22:12:00,
2013-01-07 15:22:00,47.0,28.0,29.95,ESE,111,3.0,7.0,47,-99.99,,,-99.99,656.190002,,2013-01-07 22:22:00,
2013-01-07 15:33:00,47.0,28.0,29.95,ESE,122,3.0,8.0,47,-99.99,,,-99.99,611.559998,,2013-01-07 22:33:00,
2013-01-07 15:42:00,48.0,28.0,29.95,South,176,3.0,7.0,46,-99.99,,,-99.99,562.750000,,2013-01-07 22:42:00,
2013-01-07 15:53:00,48.0,28.0,29.95,South,176,3.0,7.0,46,-99.99,,,-99.99,562.750000,,2013-01-07 22:53:00,
2013-01-07 16:02:00,48.0,28.0,29.95,South,179,3.0,7.0,47,-99.99,,,-99.99,512.539978,,2013-01-07 23:02:00,
2013-01-07 16:12:00,48.0,28.0,29.95,ESE,116,1.0,3.0,45,-99.99,,,-99.99,421.190002,,2013-01-07 23:12:00,
2013-01-07 16:22:00,48.0,28.0,29.95,ESE,116,1.0,3.0,45,-99.99,,,-99.99,421.190002,,2013-01-07 23:22:00,
2013-01-07 16:33:00,48.0,29.0,29.95,WSW,242,2.0,4.0,47,-99.99,,,-99.99,236.399994,,2013-01-07 23:33:00,
2013-01-07 16:42:00,47.0,29.0,29.95,East,91,1.0,3.0,49,-99.99,,,-99.99,122.730003,,2013-01-07 23:42:00,
2013-01-07 16:53:00,47.0,29.0,29.95,East,91,1.0,3.0,49,-99.99,,,-99.99,122.730003,,2013-01-07 23:53:00,
2013-01-07 17:02:00,47.0,29.0,29.95,East,91,1.0,3.0,49,-99.99,,,-99.99,122.730003,,2013-01-08 00:02:00,
2013-01-07 17:12:00,46.0,30.0,29.94,SE,141,0.0,2.0,55,-99.99,,,-99.99,55.090000,,2013-01-08 00:12:00,
2013-01-07 17:22:00,46.0,30.0,29.94,SE,141,0.0,2.0,55,-99.99,,,-99.99,55.090000,,2013-01-08 00:22:00,
2013-01-07 17:33:00,45.0,31.0,29.94,WSW,248,2.0,3.0,58,-99.99,,,-99.99,30.680000,,2013-01-08 00:33:00,
2013-01-07 17:42:00,43.0,31.0,29.94,West,267,3.0,3.0,62,-99.99,,,-99.99,11.850000,,2013-01-08 00:42:00,
2013-01-07 17:53:00,43.0,31.0,29.94,West,267,3.0,3.0,62,-99.99,,,-99.99,11.850000,,2013-01-08 00:53:00,
2013-01-07 18:02:00,42.0,32.0,29.94,WNW,297,4.0,6.0,68,-99.99,,,-99.99,1.390000,,2013-01-08 01:02:00,
2013-01-07 18:12:00,40.0,32.0,29.94,WNW,296,4.0,6.0,71,-99.99,,,-99.99,0.000000,,2013-01-08 01:12:00,
2013-01-07 18:22:00,40.0,32.0,29.94,WNW,296,4.0,6.0,71,-99.99,,,-99.99,0.000000,,2013-01-08 01:22:00,
2013-01-07 18:33:00,40.0,31.0,29.94,WNW,290,4.0,5.0,70,-99.99,,,-99.99,0.000000,,2013-01-08 01:33:00,
2013-01-07 18:42:00,40.0,31.0,29.94,WNW,300,4.0,5.0,69,-99.99,,,-99.99,0.000000,,2013-01-08 01:42:00,
2013-01-07 18:52:00,40.0,31.0,29.94,WNW,300,4.0,5.0,69,-99.99,,,-99.99,0.000000,,2013-01-08 01:52:00,
2013-01-07 19:02:00,40.0,31.0,29.94,WNW,300,4.0,5.0,69,-99.99,,,-99.99,0.000000,,2013-01-08 02:02:00,
2013-01-07 19:12:00,39.0,31.0,29.95,West,272,4.0,5.0,71,-99.99,,,-99.99,0.000000,,2013-01-08 02:12:00,
2013-01-07 19:22:00,39.0,31.0,29.95,West,272,4.0,5.0,71,-99.99,,,-99.99,0.000000,,2013-01-08 02:22:00,
2013-01-07 19:33:00,40.0,31.0,29.94,WSW,250,2.0,4.0,68,-99.99,,,-99.99,0.000000,,2013-01-08 02:33:00,
2013-01-07 19:42:00,40.0,30.0,29.95,West,271,3.0,5.0,67,-99.99,,,-99.99,0.000000,,2013-01-08 02:42:00,
2013-01-07 19:53:00,39.0,31.0,29.95,WNW,287,5.0,7.0,70,-99.99,,,-99.99,0.000000,,2013-01-08 02:53:00,
2013-01-07 20:03:00,39.0,31.0,29.95,WNW,287,5.0,7.0,70,-99.99,,,-99.99,0.000000,,2013-01-08 03:03:00,
2013-01-07 20:12:00,39.0,30.0,29.95,WNW,290,5.0,6.0,71,-99.99,,,-99.99,0.000000,,2013-01-08 03:12:00,
2013-01-07 20:22:00,39.0,30.0,29.95,WNW,290,5.0,6.0,71,-99.99,,,-99.99,0.000000,,2013-01-08 03:22:00,
2013-01-07 20:32:00,39.0,30.0,29.94,WNW,293,5.0,6.0,71,-99.99,,,-99.99,0.000000,,2013-01-08 03:32:00,
2013-01-07 20:43:00,38.0,30.0,29.94,WNW,291,5.0,6.0,70,-99.99,,,-99.99,0.000000,,2013-01-08 03:43:00,
2013-01-07 20:53:00,38.0,30.0,29.94,WNW,291,5.0,6.0,70,-99.99,,,-99.99,0.000000,,2013-01-08 03:53:00,
2013-01-07 21:02:00,38.0,29.0,29.93,WNW,301,5.0,6.0,70,-99.99,,,-99.99,0.000000,,2013-01-08 04:02:00,
2013-01-07 21:12:00,38.0,29.0,29.93,WNW,301,6.0,8.0,71,-99.99,,,-99.99,0.000000,,2013-01-08 04:12:00,
2013-01-07 21:22:00,38.0,29.0,29.93,WNW,301,6.0,8.0,71,-99.99,,,-99.99,0.000000,,2013-01-08 04:22:00,
2013-01-07 21:32:00,37.0,29.0,29.93,WNW,300,6.0,7.0,72,-99.99,,,-99.99,0.000000,,2013-01-08 04:32:00,
2013-01-07 21:42:00,38.0,29.0,29.94,WNW,297,4.0,5.0,69,-99.99,,,-99.99,0.000000,,2013-01-08 04:42:00,
2013-01-07 21:52:00,38.0,29.0,29.94,WNW,297,4.0,5.0,69,-99.99,,,-99.99,0.000000,,2013-01-08 04:52:00,
2013-01-07 22:03:00,39.0,28.0,29.93,WNW,297,3.0,5.0,66,-99.99,,,-99.99,0.000000,,2013-01-08 05:03:00,
2013-01-07 22:12:00,38.0,28.0,29.93,WNW,289,3.0,4.0,67,-99.99,,,-99.99,0.000000,,2013-01-08 05:12:00,
2013-01-07 22:22:00,38.0,28.0,29.93,WNW,289,3.0,4.0,67,-99.99,,,-99.99,0.000000,,2013-01-08 05:22:00,
2013-01-07 22:33:00,38.0,28.0,29.93,WNW,293,3.0,5.0,68,-99.99,,,-99.99,0.000000,,2013-01-08 05:33:00,
2013-01-07 22:42:00,38.0,28.0,29.92,WNW,293,4.0,5.0,69,-99.99,,,-99.99,0.000000,,2013-01-08 05:42:00,
2013-01-07 22:53:00,38.0,28.0,29.92,WNW,293,4.0,5.0,69,-99.99,,,-99.99,0.000000,,2013-01-08 05:53:00,
2013-01-07 23:02:00,38.0,29.0,29.92,WNW,293,4.0,5.0,69,-99.99,,,-99.99,0.000000,,2013-01-08 06:02:00,
2013-01-07 23:12:00,38.0,29.0,29.92,WNW,298,6.0,9.0,70,-99.99,,,-99.99,0.000000,,2013-01-08 06:12:00,
2013-01-07 23:22:00,38.0,29.0,29.92,WNW,298,6.0,9.0,70,-99.99,,,-99.99,0.000000,,2013-01-08 06:22:00,
2013-01-07 23:33:00,38.0,29.0,29.92,NW,310,7.0,9.0,70,-99.99,,,-99.99,0.000000,,2013-01-08 06:33:00,
2013-01-07 23:42:00,38.0,30.0,29.92,NW,305,6.0,8.0,72,-99.99,,,-99.99,0.000000,,2013-01-08 06:42:00,
2013-01-07 23:53:00,38.0,30.0,29.92,NW,305,6.0,8.0,72,-99.99,,,-99.99,0.000000,,2013-01-08 06:53:00,